Eurocargo Venezia — IBKS — position and weather

sailwx.info

Track history (hours):
 
Tides and Currents Weather Stations Pressure Air Temp Water Temp Dewpoint Dewpoint Depression Visibility Wind Speed Wind Dir Waves Ship Positions

Eurocargo Venezia

Last reported at 2015-Apr-18 06:33 UTC. Time now 2015-Apr-18 07:18 UTC.
Position N 35°58' E 014°35'.

Length 200 m; draft 6.5 m.

Type: Ship (hazmat cat A). MMSI: 247297200.

Date/timePositionNaut miles runAvg speedWind from/ knotsBaromVisibWave heightAir tempDewpointWater temp
2015-Apr-18 06:33N 35°58' E 014°35'165 8.6
2015-Apr-17 11:20N 38°36' E 015°31'1517.8
2015-Apr-17 10:28N 38°50' E 015°22'1718.3
2015-Apr-17 09:33N 39°04' E 015°10'1817.7
2015-Apr-17 08:33N 39°18' E 014°57'1817.8
2015-Apr-17 07:33N 39°33' E 014°43'1818.2
2015-Apr-17 06:33N 39°48' E 014°29'1818.4
2015-Apr-17 05:33N 40°03' E 014°16'1918.5
2015-Apr-17 04:31N 40°18' E 014°02'1717.9
2015-Apr-17 03:34N 40°33' E 013°49'1818.3
2015-Apr-17 02:33N 40°48' E 013°34'1818.1
2015-Apr-17 01:33N 40°59' E 013°16'1918.4
2015-Apr-17 00:30N 41°10' E 012°55'1718.3
2015-Apr-16 23:33N 41°20' E 012°36'1918.4
2015-Apr-16 22:32N 41°33' E 012°17'1818.3
2015-Apr-16 21:33N 41°45' E 012°00'1818.2
2015-Apr-16 20:33N 41°58' E 011°43'5418.0
2015-Apr-16 17:33N 42°33' E 010°48'1918.6
2015-Apr-16 16:33N 42°49' E 010°33'1818.3
2015-Apr-16 15:33N 43°05' E 010°23'1818.3
2015-Apr-16 14:34N 43°23' E 010°15'1111.1
2015-Apr-16 13:34N 43°33' E 010°18'1 1.3
2015-Apr-16 12:31N 43°35' E 010°18'0 0.0
2015-Apr-16 11:28N 43°35' E 010°18'0 0.0
2015-Apr-16 10:31N 43°35' E 010°18'0 0.0
2015-Apr-16 09:31N 43°35' E 010°18'0 0.0
2015-Apr-16 08:31N 43°35' E 010°18'0 0.0
2015-Apr-16 07:28N 43°35' E 010°18'0 0.0
2015-Apr-16 06:31N 43°35' E 010°18'0 0.0
2015-Apr-16 05:31N 43°35' E 010°18'1 0.9
2015-Apr-16 04:34N 43°34' E 010°18'6 5.8
2015-Apr-16 03:33N 43°30' E 010°12'1717.1
2015-Apr-16 02:33N 43°37' E 009°50'1818.0
2015-Apr-16 01:33N 43°50' E 009°34'1817.5
2015-Apr-16 00:33N 44°03' E 009°17'1818.1
2015-Apr-15 23:33N 44°17' E 009°01'9 9.2
2015-Apr-15 22:33N 44°24' E 008°53'0 0.0
2015-Apr-15 21:33N 44°24' E 008°53'0 0.0
2015-Apr-15 20:33N 44°24' E 008°53'0 0.0
2015-Apr-15 19:33N 44°24' E 008°53'0 0.0
2015-Apr-15 18:33N 44°24' E 008°53'0 0.0
2015-Apr-15 17:33N 44°24' E 008°53'0 0.0
2015-Apr-15 16:33N 44°24' E 008°53'0 0.0
2015-Apr-15 15:33N 44°24' E 008°53'0 0.0
2015-Apr-15 14:33N 44°24' E 008°53'0 0.2
2015-Apr-15 13:33N 44°24' E 008°53'8 8.1
2015-Apr-15 12:34N 44°18' E 009°01'1818.3
2015-Apr-15 11:34N 44°05' E 009°18'1918.9
2015-Apr-15 10:34N 43°50' E 009°35'1918.6
2015-Apr-15 09:34N 43°36' E 009°52'1818.4
2015-Apr-15 08:33N 43°22' E 010°08'1918.8
2015-Apr-15 07:34N 43°05' E 010°20'1918.2
2015-Apr-15 06:32N 42°49' E 010°33'1818.1
2015-Apr-15 05:33N 42°35' E 010°47'13018.2
2015-Apr-14 22:24N 41°09' E 012°58'1718.4
2015-Apr-14 21:29N 40°59' E 013°16'1718.4
2015-Apr-14 20:32N 40°48' E 013°34'1818.4
2015-Apr-14 19:33N 40°34' E 013°48'1818.3
2015-Apr-14 18:34N 40°19' E 014°02'13518.3
2015-Apr-14 11:12N 38°26' E 015°38'1214.4
2015-Apr-14 10:21N 38°14' E 015°37'122 6.8
2015-Apr-13 16:31N 36°18' E 014°53'1918.4
2015-Apr-13 15:30N 36°03' E 014°39'8 0.7
2015-Apr-13 03:33N 35°57' E 014°32'1514.4
2015-Apr-13 02:31N 36°09' E 014°21'1515.9
2015-Apr-13 01:34N 36°18' E 014°06'1716.5
2015-Apr-13 00:33N 36°29' E 013°51'1616.5
2015-Apr-12 23:33N 36°39' E 013°35'1816.4
2015-Apr-12 22:27N 36°52' E 013°19'4916.6
2015-Apr-12 19:29N 37°25' E 012°34'1516.7
2015-Apr-12 18:34N 37°36' E 012°19'1616.4
2015-Apr-12 17:33N 37°46' E 012°03'1616.2
2015-Apr-12 16:33N 37°59' E 011°51'29016.7
2015-Apr-11 23:13N 42°34' E 009°48'3016.4
2015-Apr-11 21:23N 43°03' E 009°38'1416.1
2015-Apr-11 20:33N 43°16' E 009°34'1616.6
2015-Apr-11 19:34N 43°32' E 009°27'1616.4
2015-Apr-11 18:34N 43°47' E 009°18'1616.4
2015-Apr-11 17:34N 44°02' E 009°08'1716.6
2015-Apr-11 16:33N 44°17' E 008°60'8 8.3
2015-Apr-11 15:33N 44°24' E 008°53'0 0.0
2015-Apr-11 14:33N 44°24' E 008°53'0 0.0
2015-Apr-11 13:33N 44°24' E 008°53'0 0.0
2015-Apr-11 12:33N 44°24' E 008°53'0 0.0
2015-Apr-11 11:33N 44°24' E 008°53'0 0.0
2015-Apr-11 10:33N 44°24' E 008°53'0 0.0
2015-Apr-11 09:27N 44°24' E 008°53'0 0.0
2015-Apr-11 08:33N 44°24' E 008°53'0 0.0
2015-Apr-11 07:33N 44°24' E 008°53'0 0.0
2015-Apr-11 06:33N 44°24' E 008°53'0 0.0
2015-Apr-11 05:33N 44°24' E 008°53'0 0.0
2015-Apr-11 04:33N 44°24' E 008°53'0 0.0
2015-Apr-11 03:33N 44°24' E 008°53'0 0.0
2015-Apr-11 02:33N 44°24' E 008°53'0 0.0
2015-Apr-11 01:33N 44°24' E 008°53'0 0.0
2015-Apr-11 00:33N 44°24' E 008°53'0 0.0
2015-Apr-10 23:30N 44°24' E 008°53'0 0.0
2015-Apr-10 22:33N 44°24' E 008°53'0 0.0
2015-Apr-10 21:27N 44°24' E 008°53'0 0.0
2015-Apr-10 20:27N 44°24' E 008°53'0 0.0
2015-Apr-10 19:33N 44°24' E 008°53'0 0.0
2015-Apr-10 18:33N 44°24' E 008°53'0 0.0
2015-Apr-10 17:30N 44°24' E 008°53'0 0.0
2015-Apr-10 16:27N 44°24' E 008°53'0 0.0
2015-Apr-10 15:27N 44°24' E 008°53'0 0.0
2015-Apr-10 14:33N 44°24' E 008°53'0 0.0
2015-Apr-10 13:33N 44°24' E 008°53'0 0.0
2015-Apr-10 12:33N 44°24' E 008°53'0 0.0
2015-Apr-10 11:33N 44°24' E 008°53'0 0.0
2015-Apr-10 10:30N 44°24' E 008°53'0 0.0
2015-Apr-10 09:27N 44°24' E 008°53'0 0.0
2015-Apr-10 08:30N 44°24' E 008°53'0 0.0
2015-Apr-10 07:33N 44°24' E 008°53'0 0.0
2015-Apr-10 06:33N 44°24' E 008°53'0 0.0
2015-Apr-10 05:33N 44°24' E 008°53'0 0.0
2015-Apr-10 04:33N 44°24' E 008°53'0 0.0
2015-Apr-10 03:30N 44°24' E 008°53'0 0.0
2015-Apr-10 02:30N 44°24' E 008°53'0 0.0
2015-Apr-10 01:33N 44°24' E 008°53'0 0.0
2015-Apr-10 00:33N 44°24' E 008°53'0 0.0
2015-Apr-09 23:33N 44°24' E 008°53'0 0.0
2015-Apr-09 22:33N 44°24' E 008°53'7 7.1
2015-Apr-09 21:33N 44°19' E 009°00'1818.4
2015-Apr-09 20:34N 44°05' E 009°16'1818.4
2015-Apr-09 19:33N 43°51' E 009°33'1818.0
2015-Apr-09 18:33N 43°37' E 009°49'1716.5
2015-Apr-09 17:33N 43°30' E 010°10'8 7.6
2015-Apr-09 16:33N 43°35' E 010°18'0 0.0
2015-Apr-09 15:33N 43°35' E 010°18'0 0.0
2015-Apr-09 14:33N 43°35' E 010°18'0 0.0
2015-Apr-09 13:33N 43°35' E 010°18'3 3.1
2015-Apr-09 12:33N 43°32' E 010°17'1515.2
2015-Apr-09 11:34N 43°17' E 010°19'1818.4
2015-Apr-09 10:34N 42°59' E 010°26'2119.3
2015-Apr-09 09:27N 42°41' E 010°41'1818.4
2015-Apr-09 08:29N 42°26' E 010°55'13418.5
2015-Apr-09 01:14N 41°01' E 013°13'1319.1
2015-Apr-09 00:33N 40°53' E 013°27'1918.9
2015-Apr-08 23:33N 40°39' E 013°43'1918.8
2015-Apr-08 22:33N 40°24' E 013°57'  
Track history (hours):
 
Tides and Currents Weather Stations Pressure Air Temp Water Temp Dewpoint Dewpoint Depression Visibility Wind Speed Wind Dir Waves Ship Positions

Eurocargo Venezia

Last reported at 2015-Apr-18 06:33 UTC. Time now 2015-Apr-18 07:18 UTC.
Position N 35°58' E 014°35'.

Length 200 m; draft 6.5 m.

Type: Ship (hazmat cat A). MMSI: 247297200.

Date/timePositionNaut miles runAvg speedWind from/ knotsBaromVisibWave heightAir tempDewpointWater temp
2015-Apr-18 06:33N 35°58' E 014°35'165 8.6
2015-Apr-17 11:20N 38°36' E 015°31'1517.8
2015-Apr-17 10:28N 38°50' E 015°22'1718.3
2015-Apr-17 09:33N 39°04' E 015°10'1817.7
2015-Apr-17 08:33N 39°18' E 014°57'1817.8
2015-Apr-17 07:33N 39°33' E 014°43'1818.2
2015-Apr-17 06:33N 39°48' E 014°29'1818.4
2015-Apr-17 05:33N 40°03' E 014°16'1918.5
2015-Apr-17 04:31N 40°18' E 014°02'1717.9
2015-Apr-17 03:34N 40°33' E 013°49'1818.3
2015-Apr-17 02:33N 40°48' E 013°34'1818.1
2015-Apr-17 01:33N 40°59' E 013°16'1918.4
2015-Apr-17 00:30N 41°10' E 012°55'1718.3
2015-Apr-16 23:33N 41°20' E 012°36'1918.4
2015-Apr-16 22:32N 41°33' E 012°17'1818.3
2015-Apr-16 21:33N 41°45' E 012°00'1818.2
2015-Apr-16 20:33N 41°58' E 011°43'5418.0
2015-Apr-16 17:33N 42°33' E 010°48'1918.6
2015-Apr-16 16:33N 42°49' E 010°33'1818.3
2015-Apr-16 15:33N 43°05' E 010°23'1818.3
2015-Apr-16 14:34N 43°23' E 010°15'1111.1
2015-Apr-16 13:34N 43°33' E 010°18'1 1.3
2015-Apr-16 12:31N 43°35' E 010°18'0 0.0
2015-Apr-16 11:28N 43°35' E 010°18'0 0.0
2015-Apr-16 10:31N 43°35' E 010°18'0 0.0
2015-Apr-16 09:31N 43°35' E 010°18'0 0.0
2015-Apr-16 08:31N 43°35' E 010°18'0 0.0
2015-Apr-16 07:28N 43°35' E 010°18'0 0.0
2015-Apr-16 06:31N 43°35' E 010°18'0 0.0
2015-Apr-16 05:31N 43°35' E 010°18'1 0.9
2015-Apr-16 04:34N 43°34' E 010°18'6 5.8
2015-Apr-16 03:33N 43°30' E 010°12'1717.1
2015-Apr-16 02:33N 43°37' E 009°50'1818.0
2015-Apr-16 01:33N 43°50' E 009°34'1817.5
2015-Apr-16 00:33N 44°03' E 009°17'1818.1
2015-Apr-15 23:33N 44°17' E 009°01'9 9.2
2015-Apr-15 22:33N 44°24' E 008°53'0 0.0
2015-Apr-15 21:33N 44°24' E 008°53'0 0.0
2015-Apr-15 20:33N 44°24' E 008°53'0 0.0
2015-Apr-15 19:33N 44°24' E 008°53'0 0.0
2015-Apr-15 18:33N 44°24' E 008°53'0 0.0
2015-Apr-15 17:33N 44°24' E 008°53'0 0.0
2015-Apr-15 16:33N 44°24' E 008°53'0 0.0
2015-Apr-15 15:33N 44°24' E 008°53'0 0.0
2015-Apr-15 14:33N 44°24' E 008°53'0 0.2
2015-Apr-15 13:33N 44°24' E 008°53'8 8.1
2015-Apr-15 12:34N 44°18' E 009°01'1818.3
2015-Apr-15 11:34N 44°05' E 009°18'1918.9
2015-Apr-15 10:34N 43°50' E 009°35'1918.6
2015-Apr-15 09:34N 43°36' E 009°52'1818.4
2015-Apr-15 08:33N 43°22' E 010°08'1918.8
2015-Apr-15 07:34N 43°05' E 010°20'1918.2
2015-Apr-15 06:32N 42°49' E 010°33'1818.1
2015-Apr-15 05:33N 42°35' E 010°47'13018.2
2015-Apr-14 22:24N 41°09' E 012°58'1718.4
2015-Apr-14 21:29N 40°59' E 013°16'1718.4
2015-Apr-14 20:32N 40°48' E 013°34'1818.4
2015-Apr-14 19:33N 40°34' E 013°48'1818.3
2015-Apr-14 18:34N 40°19' E 014°02'13518.3
2015-Apr-14 11:12N 38°26' E 015°38'1214.4
2015-Apr-14 10:21N 38°14' E 015°37'122 6.8
2015-Apr-13 16:31N 36°18' E 014°53'1918.4
2015-Apr-13 15:30N 36°03' E 014°39'8 0.7
2015-Apr-13 03:33N 35°57' E 014°32'1514.4
2015-Apr-13 02:31N 36°09' E 014°21'1515.9
2015-Apr-13 01:34N 36°18' E 014°06'1716.5
2015-Apr-13 00:33N 36°29' E 013°51'1616.5
2015-Apr-12 23:33N 36°39' E 013°35'1816.4
2015-Apr-12 22:27N 36°52' E 013°19'4916.6
2015-Apr-12 19:29N 37°25' E 012°34'1516.7
2015-Apr-12 18:34N 37°36' E 012°19'1616.4
2015-Apr-12 17:33N 37°46' E 012°03'1616.2
2015-Apr-12 16:33N 37°59' E 011°51'29016.7
2015-Apr-11 23:13N 42°34' E 009°48'3016.4
2015-Apr-11 21:23N 43°03' E 009°38'1416.1
2015-Apr-11 20:33N 43°16' E 009°34'1616.6
2015-Apr-11 19:34N 43°32' E 009°27'1616.4
2015-Apr-11 18:34N 43°47' E 009°18'1616.4
2015-Apr-11 17:34N 44°02' E 009°08'1716.6
2015-Apr-11 16:33N 44°17' E 008°60'8 8.3
2015-Apr-11 15:33N 44°24' E 008°53'0 0.0
2015-Apr-11 14:33N 44°24' E 008°53'0 0.0
2015-Apr-11 13:33N 44°24' E 008°53'0 0.0
2015-Apr-11 12:33N 44°24' E 008°53'0 0.0
2015-Apr-11 11:33N 44°24' E 008°53'0 0.0
2015-Apr-11 10:33N 44°24' E 008°53'0 0.0
2015-Apr-11 09:27N 44°24' E 008°53'0 0.0
2015-Apr-11 08:33N 44°24' E 008°53'0 0.0
2015-Apr-11 07:33N 44°24' E 008°53'0 0.0
2015-Apr-11 06:33N 44°24' E 008°53'0 0.0
2015-Apr-11 05:33N 44°24' E 008°53'0 0.0
2015-Apr-11 04:33N 44°24' E 008°53'0 0.0
2015-Apr-11 03:33N 44°24' E 008°53'0 0.0
2015-Apr-11 02:33N 44°24' E 008°53'0 0.0
2015-Apr-11 01:33N 44°24' E 008°53'0 0.0
2015-Apr-11 00:33N 44°24' E 008°53'0 0.0
2015-Apr-10 23:30N 44°24' E 008°53'0 0.0
2015-Apr-10 22:33N 44°24' E 008°53'0 0.0
2015-Apr-10 21:27N 44°24' E 008°53'0 0.0
2015-Apr-10 20:27N 44°24' E 008°53'0 0.0
2015-Apr-10 19:33N 44°24' E 008°53'0 0.0
2015-Apr-10 18:33N 44°24' E 008°53'0 0.0
2015-Apr-10 17:30N 44°24' E 008°53'0 0.0
2015-Apr-10 16:27N 44°24' E 008°53'0 0.0
2015-Apr-10 15:27N 44°24' E 008°53'0 0.0
2015-Apr-10 14:33N 44°24' E 008°53'0 0.0
2015-Apr-10 13:33N 44°24' E 008°53'0 0.0
2015-Apr-10 12:33N 44°24' E 008°53'0 0.0
2015-Apr-10 11:33N 44°24' E 008°53'0 0.0
2015-Apr-10 10:30N 44°24' E 008°53'0 0.0
2015-Apr-10 09:27N 44°24' E 008°53'0 0.0
2015-Apr-10 08:30N 44°24' E 008°53'0 0.0
2015-Apr-10 07:33N 44°24' E 008°53'0 0.0
2015-Apr-10 06:33N 44°24' E 008°53'0 0.0
2015-Apr-10 05:33N 44°24' E 008°53'0 0.0
2015-Apr-10 04:33N 44°24' E 008°53'0 0.0
2015-Apr-10 03:30N 44°24' E 008°53'0 0.0
2015-Apr-10 02:30N 44°24' E 008°53'0 0.0
2015-Apr-10 01:33N 44°24' E 008°53'0 0.0
2015-Apr-10 00:33N 44°24' E 008°53'0 0.0
2015-Apr-09 23:33N 44°24' E 008°53'0 0.0
2015-Apr-09 22:33N 44°24' E 008°53'7 7.1
2015-Apr-09 21:33N 44°19' E 009°00'1818.4
2015-Apr-09 20:34N 44°05' E 009°16'1818.4
2015-Apr-09 19:33N 43°51' E 009°33'1818.0
2015-Apr-09 18:33N 43°37' E 009°49'1716.5
2015-Apr-09 17:33N 43°30' E 010°10'8 7.6
2015-Apr-09 16:33N 43°35' E 010°18'0 0.0
2015-Apr-09 15:33N 43°35' E 010°18'0 0.0
2015-Apr-09 14:33N 43°35' E 010°18'0 0.0
2015-Apr-09 13:33N 43°35' E 010°18'3 3.1
2015-Apr-09 12:33N 43°32' E 010°17'1515.2
2015-Apr-09 11:34N 43°17' E 010°19'1818.4
2015-Apr-09 10:34N 42°59' E 010°26'2119.3
2015-Apr-09 09:27N 42°41' E 010°41'1818.4
2015-Apr-09 08:29N 42°26' E 010°55'13418.5
2015-Apr-09 01:14N 41°01' E 013°13'1319.1
2015-Apr-09 00:33N 40°53' E 013°27'1918.9
2015-Apr-08 23:33N 40°39' E 013°43'1918.8
2015-Apr-08 22:33N 40°24' E 013°57'  

Dump ship's entire track history